createdAt,value
2018-09-26T00:03:56.491Z,3.83
2018-09-26T00:07:58.745Z,4.40
2018-09-26T00:12:01.005Z,4.53
2018-09-26T00:16:03.292Z,5.53
2018-09-26T00:20:06.183Z,4.80
2018-09-26T00:24:08.484Z,4.90
2018-09-26T00:28:10.746Z,4.13
2018-09-26T00:32:13.056Z,4.40
2018-09-26T00:36:15.451Z,4.80
2018-09-26T00:40:20.243Z,4.20
2018-09-26T00:44:22.546Z,4.50
2018-09-26T00:48:24.831Z,4.23
2018-09-26T00:52:27.075Z,4.33
2018-09-26T00:56:29.381Z,4.70
2018-09-26T01:00:31.659Z,3.90
2018-09-26T01:04:33.926Z,4.70
2018-09-26T01:08:36.254Z,4.30
2018-09-26T01:12:38.540Z,3.90
2018-09-26T01:16:40.850Z,5.43
2018-09-26T01:20:43.738Z,4.37
2018-09-26T01:24:46.033Z,4.80
2018-09-26T01:28:48.264Z,4.43
2018-09-26T01:32:50.606Z,4.10
2018-09-26T01:36:52.895Z,3.90
2018-09-26T01:40:55.167Z,3.20
2018-09-26T01:44:57.430Z,3.30
2018-09-26T01:48:59.699Z,3.60
2018-09-26T01:53:01.992Z,4.00
2018-09-26T01:57:04.308Z,3.57
2018-09-26T02:01:06.595Z,3.80
2018-09-26T02:05:08.848Z,3.37
2018-09-26T02:09:11.960Z,3.10
2018-09-26T02:13:14.292Z,3.23
2018-09-26T02:17:18.061Z,4.70
2018-09-26T02:21:20.399Z,3.23
2018-09-26T02:25:22.668Z,4.83
2018-09-26T02:29:24.939Z,4.43
2018-09-26T02:33:27.246Z,3.73
2018-09-26T02:37:29.514Z,3.83
2018-09-26T02:41:31.896Z,3.73
2018-09-26T02:45:34.174Z,3.60
2018-09-26T02:49:36.490Z,4.20
2018-09-26T02:53:38.794Z,3.03
2018-09-26T02:57:41.040Z,3.30
2018-09-26T03:01:43.307Z,4.50
2018-09-26T03:05:45.581Z,4.57
2018-09-26T03:09:47.866Z,3.70
2018-09-26T03:13:50.155Z,4.47
2018-09-26T03:17:52.715Z,3.90
2018-09-26T03:21:54.996Z,4.07
2018-09-26T03:25:57.250Z,4.70
2018-09-26T03:29:59.481Z,4.50
2018-09-26T03:34:01.777Z,4.13
2018-09-26T03:38:04.047Z,4.87
2018-09-26T03:42:06.393Z,4.10
2018-09-26T03:46:08.655Z,5.37
2018-09-26T03:50:11.118Z,4.07
2018-09-26T03:54:13.418Z,3.90
2018-09-26T03:58:15.673Z,4.27
2018-09-26T04:02:17.936Z,3.43
2018-09-26T04:06:20.224Z,4.03
2018-09-26T04:10:22.609Z,3.87
2018-09-26T04:14:24.897Z,3.50
2018-09-26T04:18:27.253Z,3.90
2018-09-26T04:22:29.631Z,3.63
2018-09-26T04:26:31.947Z,3.70
2018-09-26T04:30:34.216Z,4.47
2018-09-26T04:34:36.390Z,3.47
2018-09-26T04:38:38.719Z,3.40
2018-09-26T04:42:40.922Z,3.50
2018-09-26T04:46:43.229Z,3.70
2018-09-26T04:50:45.600Z,3.87
2018-09-26T04:54:47.832Z,3.33
2018-09-26T04:58:50.134Z,3.57
2018-09-26T05:02:52.349Z,3.03
2018-09-26T05:06:54.656Z,3.43
2018-09-26T05:10:57.032Z,4.10
2018-09-26T05:14:59.399Z,3.80
2018-09-26T05:19:01.958Z,5.10
2018-09-26T05:23:05.258Z,4.23
2018-09-26T05:27:07.893Z,4.17
2018-09-26T05:31:10.355Z,4.97
2018-09-26T05:35:12.654Z,4.17
2018-09-26T05:39:14.985Z,4.37
2018-09-26T05:43:17.267Z,2.87
2018-09-26T05:47:19.579Z,3.47
2018-09-26T05:51:21.902Z,2.77
2018-09-26T05:55:24.203Z,3.17
2018-09-26T05:59:26.510Z,2.77
2018-09-26T06:03:28.813Z,2.70
2018-09-26T06:07:31.117Z,2.70
2018-09-26T06:11:33.427Z,2.90
2018-09-26T06:15:35.733Z,2.40
2018-09-26T06:19:38.057Z,3.57
2018-09-26T06:23:40.335Z,3.57
2018-09-26T06:27:42.613Z,5.40
2018-09-26T06:31:44.876Z,2.70
2018-09-26T06:35:47.158Z,3.20
2018-09-26T06:39:49.429Z,2.17
2018-09-26T06:43:51.744Z,2.03
2018-09-26T06:47:54.033Z,2.23
2018-09-26T06:51:56.375Z,1.90
2018-09-26T06:55:58.691Z,1.80
2018-09-26T07:00:00.978Z,2.23
2018-09-26T07:04:03.243Z,1.83
2018-09-26T07:08:05.638Z,2.37
2018-09-26T07:12:08.029Z,1.67
2018-09-26T07:16:10.247Z,1.43
2018-09-26T07:20:12.511Z,1.97
2018-09-26T07:24:14.846Z,1.70
2018-09-26T07:28:17.213Z,1.80
2018-09-26T07:32:19.626Z,2.37
2018-09-26T07:36:21.851Z,2.17
2018-09-26T07:40:24.108Z,3.70
2018-09-26T07:44:26.444Z,2.50
2018-09-26T07:48:28.907Z,2.13
2018-09-26T07:52:31.277Z,2.17
2018-09-26T07:56:33.652Z,1.80
2018-09-26T08:00:36.017Z,2.40
2018-09-26T08:04:38.386Z,1.60
2018-09-26T08:08:40.738Z,1.83
2018-09-26T08:12:43.134Z,1.60
2018-09-26T08:16:45.503Z,2.10
2018-09-26T08:20:47.900Z,2.10
2018-09-26T08:24:50.246Z,1.40
2018-09-26T08:28:52.655Z,1.80
2018-09-26T08:32:54.991Z,1.53
2018-09-26T08:36:57.313Z,1.83
2018-09-26T08:41:00.181Z,1.70
2018-09-26T08:45:02.499Z,1.73
2018-09-26T08:49:04.850Z,2.10
2018-09-26T08:53:07.485Z,1.87
2018-09-26T08:57:09.807Z,1.97
2018-09-26T09:01:17.901Z,1.77
2018-09-26T09:05:20.190Z,1.57
2018-09-26T09:09:22.569Z,2.73
2018-09-26T09:13:24.864Z,1.83
2018-09-26T09:17:27.407Z,1.60
2018-09-26T09:21:29.861Z,1.70
2018-09-26T09:25:32.158Z,1.63
2018-09-26T09:29:34.476Z,2.50
2018-09-26T09:33:36.837Z,1.93
2018-09-26T09:37:39.161Z,2.03
2018-09-26T09:41:41.433Z,2.40
2018-09-26T09:45:43.772Z,1.60
2018-09-26T09:49:46.068Z,1.50
2018-09-26T09:53:48.389Z,1.50
2018-09-26T09:57:50.768Z,1.70
2018-09-26T10:01:53.137Z,1.70
2018-09-26T10:05:55.435Z,2.07
2018-09-26T10:09:57.786Z,1.37
2018-09-26T10:14:00.108Z,2.13
2018-09-26T10:18:02.439Z,2.23
2018-09-26T10:22:04.946Z,2.07
2018-09-26T10:26:07.394Z,2.07
2018-09-26T10:30:09.751Z,1.80
2018-09-26T10:34:12.026Z,1.60
2018-09-26T10:38:14.317Z,2.23
2018-09-26T10:42:16.562Z,3.17
2018-09-26T10:46:18.834Z,1.83
2018-09-26T10:50:21.117Z,2.47
2018-09-26T10:54:23.305Z,2.17
2018-09-26T10:58:25.572Z,1.93
2018-09-26T11:02:27.945Z,2.43
2018-09-26T11:06:30.216Z,1.90
2018-09-26T11:10:32.491Z,2.50
2018-09-26T11:14:34.756Z,2.97
2018-09-26T11:18:37.116Z,2.40
2018-09-26T11:22:39.373Z,3.33
2018-09-26T11:26:41.727Z,3.07
2018-09-26T11:30:43.989Z,1.63
2018-09-26T11:34:46.279Z,2.77
2018-09-26T11:38:48.556Z,1.77
2018-09-26T11:42:50.816Z,1.60
2018-09-26T11:46:53.037Z,2.00
2018-09-26T11:50:55.302Z,2.23
2018-09-26T11:54:57.626Z,1.90
2018-09-26T11:58:59.977Z,1.97
2018-09-26T12:03:02.291Z,2.67
2018-09-26T12:07:04.585Z,2.87
2018-09-26T12:11:06.845Z,2.83
2018-09-26T12:15:09.138Z,1.77
2018-09-26T12:19:11.416Z,1.97
2018-09-26T12:23:13.659Z,2.17
2018-09-26T12:27:15.964Z,2.47
2018-09-26T12:31:18.242Z,2.23
2018-09-26T12:35:20.467Z,3.00
2018-09-26T12:39:22.686Z,1.40
2018-09-26T12:43:24.950Z,1.90
2018-09-26T12:47:27.271Z,1.80
2018-09-26T12:51:29.598Z,3.90
2018-09-26T12:55:31.866Z,3.53
2018-09-26T12:59:34.124Z,1.37
2018-09-26T13:03:45.904Z,1.80
2018-09-26T13:07:48.161Z,1.27
2018-09-26T13:11:50.463Z,1.90
2018-09-26T13:15:52.649Z,1.00
2018-09-26T13:19:54.923Z,1.40
2018-09-26T13:23:57.296Z,1.40
2018-09-26T13:27:59.544Z,2.13
2018-09-26T13:32:02.503Z,1.53
2018-09-26T13:36:04.799Z,1.87
2018-09-26T13:40:07.219Z,1.90
2018-09-26T13:44:09.492Z,1.80
2018-09-26T13:48:11.725Z,1.40
2018-09-26T13:52:14.005Z,1.83
2018-09-26T13:56:16.316Z,1.93
2018-09-26T14:00:18.663Z,1.90
2018-09-26T14:04:20.909Z,2.27
2018-09-26T14:08:23.260Z,1.20
2018-09-26T14:12:25.515Z,2.67
2018-09-26T14:16:27.810Z,2.27
2018-09-26T14:20:30.324Z,1.60
2018-09-26T14:24:32.620Z,2.13
2018-09-26T14:28:34.855Z,1.70
2018-09-26T14:32:37.197Z,1.90
2018-09-26T14:36:39.504Z,2.37
2018-09-26T14:40:41.819Z,2.03
2018-09-26T14:44:45.287Z,1.87
2018-09-26T14:48:47.667Z,1.60
2018-09-26T14:52:50.030Z,1.70
2018-09-26T14:56:52.404Z,1.67
2018-09-26T15:00:54.809Z,1.50
2018-09-26T15:04:57.104Z,1.43
2018-09-26T15:08:59.420Z,2.27
2018-09-26T15:13:01.737Z,2.43
2018-09-26T15:17:04.063Z,1.70
2018-09-26T15:21:06.444Z,1.73
2018-09-26T15:25:08.907Z,1.30
2018-09-26T15:29:11.261Z,2.77
2018-09-26T15:33:13.634Z,2.07
2018-09-26T15:37:15.936Z,2.00
2018-09-26T15:41:18.243Z,1.90
2018-09-26T15:45:20.606Z,2.60
2018-09-26T15:49:22.881Z,4.70
2018-09-26T15:53:25.173Z,1.80
2018-09-26T15:57:27.439Z,2.40
2018-09-26T16:01:30.032Z,2.23
2018-09-26T16:05:33.428Z,2.70
2018-09-26T16:09:35.740Z,2.90
2018-09-26T16:13:38.096Z,2.30
2018-09-26T16:17:40.484Z,2.47
2018-09-26T16:21:42.810Z,2.70
2018-09-26T16:25:45.139Z,3.77
2018-09-26T16:29:47.407Z,1.97
2018-09-26T16:33:49.752Z,2.23
2018-09-26T16:37:52.096Z,2.13
2018-09-26T16:41:54.427Z,2.60
2018-09-26T16:45:56.794Z,2.00
2018-09-26T16:49:59.057Z,2.80
2018-09-26T16:54:01.311Z,1.93
2018-09-26T16:58:03.588Z,3.17
2018-09-26T17:02:06.013Z,2.67
2018-09-26T17:06:08.425Z,2.30
2018-09-26T17:10:10.667Z,2.33
2018-09-26T17:14:13.033Z,3.17
2018-09-26T17:18:15.368Z,3.57
2018-09-26T17:22:17.751Z,2.57
2018-09-26T17:26:20.212Z,2.60
2018-09-26T17:30:22.508Z,3.70
2018-09-26T17:34:24.869Z,5.70
2018-09-26T17:38:27.201Z,5.15
2018-09-26T17:42:29.612Z,3.33
2018-09-26T17:46:32.131Z,3.20
2018-09-26T17:50:34.438Z,4.37
2018-09-26T17:54:36.750Z,5.03
2018-09-26T17:58:38.994Z,3.43
2018-09-26T18:02:41.885Z,3.70
2018-09-26T18:06:44.119Z,10.23
2018-09-26T18:10:46.367Z,3.53
2018-09-26T18:14:48.629Z,4.23
2018-09-26T18:18:51.446Z,3.10
2018-09-26T18:22:53.726Z,2.60
2018-09-26T18:26:55.959Z,5.80
2018-09-26T18:30:58.291Z,11.90
2018-09-26T18:35:00.479Z,9.13
2018-09-26T18:39:03.085Z,7.30
2018-09-26T18:43:05.471Z,7.73
2018-09-26T18:47:07.798Z,7.93
2018-09-26T18:51:10.607Z,7.83
2018-09-26T18:55:12.777Z,8.90
2018-09-26T18:59:15.147Z,12.27
2018-09-26T19:03:17.908Z,14.80
2018-09-26T19:07:20.386Z,9.73
2018-09-26T19:11:23.664Z,11.73
2018-09-26T19:15:26.041Z,14.03
2018-09-26T19:19:28.428Z,7.83
2018-09-26T19:23:30.716Z,5.00
2018-09-26T19:27:33.149Z,5.10
2018-09-26T19:31:36.139Z,3.73
2018-09-26T19:35:39.515Z,4.40
2018-09-26T19:39:41.830Z,5.13
2018-09-26T19:43:44.136Z,5.10
2018-09-26T19:47:46.484Z,5.30
2018-09-26T19:51:48.791Z,6.47
2018-09-26T19:55:51.150Z,10.50
2018-09-26T19:59:53.377Z,15.33
2018-09-26T20:03:55.733Z,16.87
2018-09-26T20:07:59.373Z,10.77
2018-09-26T20:12:01.579Z,11.03
2018-09-26T20:16:03.956Z,7.67
2018-09-26T20:20:06.302Z,7.20
2018-09-26T20:24:08.657Z,6.30
2018-09-26T20:28:11.032Z,5.97
2018-09-26T20:32:13.385Z,6.20
2018-09-26T20:36:15.732Z,5.93
2018-09-26T20:40:18.082Z,4.73
2018-09-26T20:44:20.451Z,4.73
2018-09-26T20:48:22.715Z,4.03
2018-09-26T20:52:25.010Z,6.10
2018-09-26T20:56:27.431Z,6.27
2018-09-26T21:00:29.833Z,4.67
2018-09-26T21:04:32.169Z,6.77
2018-09-26T21:08:34.436Z,7.20
2018-09-26T21:12:36.689Z,6.17
2018-09-26T21:16:39.007Z,5.23
2018-09-26T21:20:41.316Z,5.60
2018-09-26T21:24:43.777Z,5.40
2018-09-26T21:28:46.077Z,4.97
2018-09-26T21:32:48.360Z,5.07
2018-09-26T21:36:50.628Z,5.17
2018-09-26T21:40:52.873Z,4.83
2018-09-26T21:44:55.111Z,6.17
2018-09-26T21:48:57.385Z,6.93
2018-09-26T21:52:59.646Z,8.03
2018-09-26T21:57:01.856Z,7.27
2018-09-26T22:01:08.751Z,12.30
2018-09-26T22:05:11.155Z,12.43
2018-09-26T22:09:13.557Z,9.97
2018-09-26T22:13:15.935Z,10.60
2018-09-26T22:17:18.328Z,9.13
2018-09-26T22:21:20.683Z,6.97
2018-09-26T22:25:23.182Z,7.20
2018-09-26T22:29:25.543Z,6.53
2018-09-26T22:33:28.304Z,6.43
2018-09-26T22:37:30.682Z,7.20
2018-09-26T22:41:33.080Z,6.83
2018-09-26T22:45:35.452Z,14.00
2018-09-26T22:49:37.881Z,10.50
2018-09-26T22:53:40.275Z,9.43
2018-09-26T22:57:42.673Z,6.60
2018-09-26T23:01:45.051Z,6.40
2018-09-26T23:05:47.428Z,7.10
2018-09-26T23:09:49.792Z,6.70
2018-09-26T23:13:52.184Z,4.93
2018-09-26T23:17:54.585Z,5.97
2018-09-26T23:21:56.953Z,5.63
2018-09-26T23:25:59.404Z,6.13
2018-09-26T23:30:01.810Z,6.03
2018-09-26T23:34:04.213Z,5.90
2018-09-26T23:38:06.585Z,7.40
2018-09-26T23:42:08.955Z,5.57
2018-09-26T23:46:11.339Z,5.87
2018-09-26T23:50:13.733Z,6.23
2018-09-26T23:54:16.537Z,5.37
2018-09-26T23:58:18.878Z,5.53
